MDT,Max TemperatureF,Mean TemperatureF,Min TemperatureF,Max Dew PointF,MeanDew PointF,Min DewpointF,Max Humidity, Mean Humidity, Min Humidity, Max Sea Level PressureIn, Mean Sea Level PressureIn, Min Sea Level PressureIn, Max VisibilityMiles, Mean VisibilityMiles, Min VisibilityMiles, Max Wind SpeedMPH, Mean Wind SpeedMPH, Max Gust SpeedMPH,PrecipitationIn, CloudCover, Events, WindDirDegrees
2012-10-1,80,62,43,37,32,27,58,38,17,30.30,30.08,29.99,10,10,10,14,5,16,0.00,0,,94
2012-10-2,81,64,46,33,28,23,50,32,13,30.03,29.93,29.82,10,10,10,16,7,18,0.00,0,,112
2012-10-3,84,66,48,31,25,16,39,25,10,29.96,29.86,29.76,10,10,10,26,9,38,0.00,0,,162
2012-10-4,80,60,39,36,24,15,40,26,11,29.99,29.90,29.79,10,10,10,29,6,37,T,1,,214
2012-10-5,75,60,45,39,19,9,54,31,8,30.09,29.88,29.77,10,10,10,23,7,29,T,0,Rain,306
2012-10-6,64,54,44,12,8,4,25,17,9,30.16,30.00,29.91,10,10,10,20,6,23,0.00,0,,21
2012-10-7,62,46,30,15,8,5,33,22,10,30.12,30.05,29.99,10,10,10,15,5,16,0.00,0,,100
2012-10-8,66,50,33,17,10,7,35,23,11,30.11,30.01,29.91,10,10,10,16,5,18,0.00,0,,130
2012-10-9,73,54,34,27,18,10,37,26,14,30.03,29.95,29.88,10,10,10,14,5,16,0.00,0,,89
2012-10-10,75,59,43,31,25,21,36,26,16,30.05,29.93,29.83,10,10,10,16,7,22,0.00,0,,120
2012-10-11,76,62,48,31,29,27,46,32,18,30.08,29.90,29.83,10,10,10,17,9,21,0.00,0,,102
2012-10-12,64,55,45,50,43,28,89,61,33,30.08,29.93,29.84,10,9,2,30,10,39,0.13,6,Rain-Thunderstorm,61
2012-10-13,56,50,44,48,44,41,100,83,66,30.27,30.12,29.99,10,10,9,12,4,13,0.09,7,Rain,23
2012-10-14,66,54,41,46,41,35,100,67,34,30.34,30.23,30.16,10,10,7,12,4,14,0.00,2,,106
2012-10-15,68,54,39,40,38,36,86,60,34,30.20,30.08,29.96,10,10,10,13,5,14,0.00,0,,103
2012-10-16,71,55,39,43,37,36,82,55,28,30.07,29.83,29.64,10,10,10,25,7,31,0.00,0,,55
2012-10-17,61,49,36,33,13,6,46,29,11,30.06,29.93,29.73,10,10,10,28,9,32,0.00,0,,343
2012-10-18,65,47,29,17,14,10,53,33,13,30.25,30.16,30.09,10,10,10,12,4,12,0.00,0,,75
2012-10-19,68,52,35,23,20,18,52,34,16,30.16,30.04,29.93,10,10,10,15,6,16,0.00,0,,117
2012-10-20,72,54,36,27,23,18,54,35,15,29.99,29.80,29.66,10,10,10,14,6,16,0.00,0,,112
2012-10-21,73,56,38,34,26,19,49,34,19,29.87,29.72,29.66,10,10,10,17,8,21,0.00,1,,110
2012-10-22,71,61,51,36,33,30,50,38,25,29.90,29.71,29.64,10,10,10,24,12,30,0.00,4,,154
2012-10-23,72,63,53,34,28,22,41,30,18,29.86,29.67,29.59,10,10,10,24,9,35,0.00,1,,180
2012-10-24,61,48,35,39,30,22,86,54,22,30.01,29.78,29.62,10,10,4,37,10,44,0.07,4,Rain,214
2012-10-25,51,40,28,32,27,21,100,68,36,30.31,30.16,30.01,10,10,10,33,6,39,T,4,,3
2012-10-26,47,36,24,23,17,9,81,51,21,30.48,30.35,30.23,10,10,10,12,3,14,0.00,0,,89
2012-10-27,54,39,23,19,14,10,68,44,19,30.32,30.22,30.14,10,10,10,13,3,15,0.00,1,,77
2012-10-28,61,44,27,21,17,13,63,42,20,30.29,30.18,30.08,10,10,10,12,3,14,0.00,0,,81
2012-10-29,65,49,32,28,25,21,69,46,22,30.26,30.17,30.10,10,10,10,14,5,15,0.00,0,,131
2012-10-30,66,50,34,27,25,21,64,43,22,30.25,30.15,30.07,10,10,10,13,6,15,0.00,0,,101
2012-10-31,68,52,36,26,25,22,64,42,20,30.22,30.11,30.01,10,10,10,15,7,17,0.00,0,,128